Flugmeteorologie

METAR


Letzte Änderung: 08 Apr 2020 05:20:00
501
SAHU41 HASM 080530
METAR LHSM 080515Z AUTO 32003KT 9000 NCD 01/M03 Q1031

TAF


Letzte Änderung: 08 Apr 2020 05:05:00
500
FCHU99 LHSM 080500
TAF LHSM 080500Z NIL